createdAt,value
2023-02-05T00:01:27.909Z,0.50
2023-02-05T00:03:54.595Z,0.40
2023-02-05T00:06:21.452Z,0.40
2023-02-05T00:08:48.198Z,0.40
2023-02-05T00:11:14.887Z,0.40
2023-02-05T00:13:43.196Z,0.30
2023-02-05T00:16:12.819Z,0.30
2023-02-05T00:18:39.541Z,0.30
2023-02-05T00:21:06.899Z,0.30
2023-02-05T00:23:34.922Z,0.30
2023-02-05T00:26:02.039Z,0.20
2023-02-05T00:28:28.931Z,0.10
2023-02-05T00:30:55.649Z,0.00
2023-02-05T00:33:22.379Z,0.00
2023-02-05T00:35:49.635Z,-0.10
2023-02-05T00:38:16.427Z,-0.20
2023-02-05T00:40:43.471Z,-0.20
2023-02-05T00:43:10.295Z,-0.20
2023-02-05T00:45:37.013Z,-0.20
2023-02-05T00:48:07.033Z,-0.20
2023-02-05T00:50:34.361Z,-0.30
2023-02-05T00:53:01.141Z,-0.40
2023-02-05T00:55:28.038Z,-0.50
2023-02-05T00:57:55.027Z,-0.40
2023-02-05T01:00:22.037Z,-0.50
2023-02-05T01:02:48.772Z,-0.50
2023-02-05T01:05:15.587Z,-0.50
2023-02-05T01:07:42.336Z,-0.60
2023-02-05T01:10:09.242Z,-0.60
2023-02-05T01:12:36.061Z,-0.60
2023-02-05T01:15:05.613Z,-0.50
2023-02-05T01:17:32.439Z,-0.40
2023-02-05T01:19:59.122Z,-0.50
2023-02-05T01:22:25.897Z,-0.60
2023-02-05T01:24:52.667Z,-0.70
2023-02-05T01:27:19.406Z,-0.70
2023-02-05T01:29:46.184Z,-0.70
2023-02-05T01:32:12.874Z,-0.70
2023-02-05T01:34:39.570Z,-0.70
2023-02-05T01:37:06.284Z,-0.60
2023-02-05T01:39:32.993Z,-0.70
2023-02-05T01:41:59.661Z,-0.70
2023-02-05T01:44:26.423Z,-0.70
2023-02-05T01:46:54.766Z,-0.70
2023-02-05T01:49:35.316Z,-1.00
2023-02-05T01:52:08.004Z,-1.20
2023-02-05T01:54:37.583Z,-1.20
2023-02-05T01:57:09.710Z,-1.20
2023-02-05T01:59:40.603Z,-1.10
2023-02-05T02:02:07.901Z,-1.20
2023-02-05T02:04:39.257Z,-1.10
2023-02-05T02:07:09.732Z,-1.10
2023-02-05T02:09:37.161Z,-1.00
2023-02-05T02:12:04.117Z,-1.00
2023-02-05T02:14:34.039Z,-1.00
2023-02-05T02:17:03.372Z,-1.10
2023-02-05T02:19:38.497Z,-1.10
2023-02-05T02:22:23.451Z,-1.10
2023-02-05T02:25:14.654Z,-1.10
2023-02-05T02:27:50.406Z,-1.10
2023-02-05T02:30:31.088Z,-1.10
2023-02-05T02:33:34.452Z,-1.20
2023-02-05T02:36:09.968Z,-1.20
2023-02-05T02:39:05.212Z,-1.40
2023-02-05T02:41:33.767Z,-1.40
2023-02-05T02:44:19.368Z,-1.50
2023-02-05T02:46:54.513Z,-1.50
2023-02-05T02:49:36.325Z,-1.50
2023-02-05T02:52:07.592Z,-1.60
2023-02-05T02:54:36.994Z,-1.50
2023-02-05T02:57:08.506Z,-1.60
2023-02-05T02:59:37.992Z,-1.60
2023-02-05T03:02:07.239Z,-1.70
2023-02-05T03:04:38.230Z,-1.80
2023-02-05T03:07:15.865Z,-1.80
2023-02-05T03:09:45.647Z,-1.80
2023-02-05T03:12:12.360Z,-1.80
2023-02-05T03:14:39.302Z,-1.80
2023-02-05T03:17:06.234Z,-1.70
2023-02-05T03:19:33.511Z,-1.80
2023-02-05T03:22:04.436Z,-1.80
2023-02-05T03:24:32.035Z,-1.70
2023-02-05T03:26:58.819Z,-1.70
2023-02-05T03:29:28.523Z,-1.80
2023-02-05T03:32:23.663Z,-2.00
2023-02-05T03:35:20.937Z,-2.10
2023-02-05T03:38:08.177Z,-2.10
2023-02-05T03:41:07.662Z,-2.10
2023-02-05T03:44:10.212Z,-2.10
2023-02-05T03:46:48.045Z,-2.10
2023-02-05T03:49:28.854Z,-2.10
2023-02-05T03:52:02.693Z,-2.00
2023-02-05T03:54:52.965Z,-2.00
2023-02-05T03:57:30.388Z,-2.00
2023-02-05T03:59:59.647Z,-2.10
2023-02-05T04:02:28.379Z,-2.10
2023-02-05T04:04:56.424Z,-2.20
2023-02-05T04:07:23.840Z,-2.20
2023-02-05T04:09:50.754Z,-2.20
2023-02-05T04:12:17.546Z,-2.20
2023-02-05T04:14:44.966Z,-2.30
2023-02-05T04:17:12.802Z,-2.40
2023-02-05T04:19:41.493Z,-2.50
2023-02-05T04:22:09.157Z,-2.50
2023-02-05T04:24:39.559Z,-2.60
2023-02-05T04:27:06.787Z,-2.50
2023-02-05T04:29:33.852Z,-2.50
2023-02-05T04:32:01.014Z,-2.60
2023-02-05T04:34:27.768Z,-2.60
2023-02-05T04:36:55.548Z,-2.80
2023-02-05T04:39:24.707Z,-2.90
2023-02-05T04:41:51.510Z,-2.90
2023-02-05T04:44:18.251Z,-3.00
2023-02-05T04:46:44.971Z,-3.00
2023-02-05T04:49:11.644Z,-3.00
2023-02-05T04:51:38.346Z,-3.00
2023-02-05T04:54:05.216Z,-3.00
2023-02-05T04:56:31.902Z,-3.10
2023-02-05T04:58:58.577Z,-3.20
2023-02-05T05:01:25.370Z,-3.20
2023-02-05T05:03:52.154Z,-3.30
2023-02-05T05:06:19.481Z,-3.20
2023-02-05T05:08:46.422Z,-3.20
2023-02-05T05:11:15.826Z,-3.20
2023-02-05T05:13:43.064Z,-3.10
2023-02-05T05:16:11.307Z,-3.20
2023-02-05T05:18:39.322Z,-3.10
2023-02-05T05:21:06.046Z,-3.10
2023-02-05T05:23:33.763Z,-3.10
2023-02-05T05:26:08.085Z,-3.10
2023-02-05T05:28:35.528Z,-3.10
2023-02-05T05:31:11.027Z,-3.10
2023-02-05T05:33:38.403Z,-3.20
2023-02-05T05:36:06.693Z,-3.20
2023-02-05T05:38:33.562Z,-3.20
2023-02-05T05:41:18.980Z,-3.30
2023-02-05T05:43:48.582Z,-3.30
2023-02-05T05:46:21.978Z,-3.20
2023-02-05T05:48:50.855Z,-3.20
2023-02-05T05:51:18.210Z,-3.20
2023-02-05T05:53:45.655Z,-3.20
2023-02-05T05:56:12.688Z,-3.30
2023-02-05T05:58:39.594Z,-3.30
2023-02-05T06:01:07.975Z,-3.30
2023-02-05T06:03:34.769Z,-3.30
2023-02-05T06:06:03.746Z,-3.40
2023-02-05T06:08:30.870Z,-3.30
2023-02-05T06:10:57.771Z,-3.40
2023-02-05T06:13:24.900Z,-3.40
2023-02-05T06:15:52.236Z,-3.50
2023-02-05T06:18:19.080Z,-3.40
2023-02-05T06:20:45.845Z,-3.40
2023-02-05T06:23:13.032Z,-3.40
2023-02-05T06:25:39.867Z,-3.40
2023-02-05T06:28:06.656Z,-3.50
2023-02-05T06:30:33.519Z,-3.50
2023-02-05T06:33:00.314Z,-3.60
2023-02-05T06:35:27.078Z,-3.60
2023-02-05T06:37:53.783Z,-3.90
2023-02-05T06:40:22.386Z,-3.90
2023-02-05T06:42:49.437Z,-3.90
2023-02-05T06:45:16.250Z,-3.90
2023-02-05T06:47:43.059Z,-3.90
2023-02-05T06:50:10.395Z,-3.70
2023-02-05T06:52:37.969Z,-3.70
2023-02-05T06:55:05.441Z,-3.70
2023-02-05T06:57:32.256Z,-3.60
2023-02-05T06:59:59.136Z,-3.70
2023-02-05T07:02:25.893Z,-3.70
2023-02-05T07:04:52.625Z,-3.60
2023-02-05T07:07:19.305Z,-3.60
2023-02-05T07:09:46.017Z,-3.60
2023-02-05T07:12:12.756Z,-3.60
2023-02-05T07:14:40.724Z,-3.50
2023-02-05T07:17:08.043Z,-3.40
2023-02-05T07:19:35.973Z,-3.40
2023-02-05T07:22:02.730Z,-3.40
2023-02-05T07:24:29.533Z,-3.30
2023-02-05T07:26:56.297Z,-3.30
2023-02-05T07:29:23.088Z,-3.30
2023-02-05T07:31:50.609Z,-3.10
2023-02-05T07:34:17.554Z,-3.00
2023-02-05T07:36:44.245Z,-3.00
2023-02-05T07:39:10.994Z,-3.10
2023-02-05T07:41:37.644Z,-3.10
2023-02-05T07:44:05.360Z,-3.10
2023-02-05T07:46:32.137Z,-3.00
2023-02-05T07:48:58.920Z,-3.10
2023-02-05T07:51:26.770Z,-3.00
2023-02-05T07:53:53.996Z,-2.90
2023-02-05T07:56:25.706Z,-2.70
2023-02-05T07:58:52.475Z,-2.60
2023-02-05T08:01:19.238Z,-2.50
2023-02-05T08:03:46.102Z,-2.30
2023-02-05T08:06:15.591Z,-2.10
2023-02-05T08:08:42.663Z,-1.80
2023-02-05T08:11:16.387Z,-1.70
2023-02-05T08:13:44.299Z,-1.40
2023-02-05T08:16:11.763Z,-1.30
2023-02-05T08:18:38.748Z,-1.30
2023-02-05T08:21:05.632Z,-1.20
2023-02-05T08:23:32.477Z,-1.00
2023-02-05T08:26:00.014Z,-0.70
2023-02-05T08:28:28.781Z,-0.40
2023-02-05T08:30:56.593Z,-0.20
2023-02-05T08:33:23.649Z,0.00
2023-02-05T08:35:50.513Z,0.20
2023-02-05T08:38:17.404Z,0.30
2023-02-05T08:40:44.231Z,0.30
2023-02-05T08:43:11.390Z,0.30
2023-02-05T08:45:38.809Z,0.40
2023-02-05T08:48:05.512Z,0.50
2023-02-05T08:50:32.289Z,0.60
2023-02-05T08:52:58.972Z,0.70
2023-02-05T08:55:25.672Z,0.70
2023-02-05T08:57:52.904Z,0.90
2023-02-05T09:00:21.050Z,1.10
2023-02-05T09:02:47.782Z,1.20
2023-02-05T09:05:14.552Z,1.60
2023-02-05T09:07:41.999Z,1.80
2023-02-05T09:10:11.033Z,2.00
2023-02-05T09:12:37.860Z,2.10
2023-02-05T09:15:05.929Z,2.10
2023-02-05T09:17:32.759Z,2.20
2023-02-05T09:19:59.526Z,2.20
2023-02-05T09:22:26.374Z,2.30
2023-02-05T09:24:53.058Z,2.30
2023-02-05T09:27:19.751Z,2.10
2023-02-05T09:29:46.553Z,2.10
2023-02-05T09:32:13.296Z,1.90
2023-02-05T09:34:40.070Z,1.80
2023-02-05T09:37:06.742Z,1.90
2023-02-05T09:42:58.483Z,1.90
2023-02-05T09:45:38.265Z,2.00
2023-02-05T09:48:38.854Z,1.80
2023-02-05T09:51:09.957Z,1.60
2023-02-05T09:53:42.898Z,1.60
2023-02-05T09:56:12.370Z,1.60
2023-02-05T09:58:46.102Z,1.60
2023-02-05T10:01:21.135Z,1.50
2023-02-05T10:04:00.925Z,1.50
2023-02-05T10:06:50.337Z,1.50
2023-02-05T10:09:37.242Z,1.60
2023-02-05T10:12:03.998Z,1.60
2023-02-05T10:14:57.548Z,1.60
2023-02-05T10:17:50.474Z,1.70
2023-02-05T10:20:29.985Z,1.60
2023-02-05T10:23:11.756Z,1.60
2023-02-05T10:25:50.203Z,1.70
2023-02-05T10:28:51.259Z,1.70
2023-02-05T10:31:42.997Z,1.70
2023-02-05T10:34:18.727Z,1.70
2023-02-05T10:36:51.964Z,1.70
2023-02-05T10:39:21.256Z,1.70
2023-02-05T10:42:01.811Z,1.80
2023-02-05T10:44:40.184Z,1.80
2023-02-05T10:47:16.649Z,1.80
2023-02-05T10:49:50.575Z,1.80
2023-02-05T10:52:17.621Z,1.70
2023-02-05T10:54:45.337Z,1.70
2023-02-05T10:57:20.419Z,1.80
2023-02-05T10:59:54.974Z,1.90
2023-02-05T11:02:25.296Z,2.00
2023-02-05T11:04:59.537Z,2.00
2023-02-05T11:07:35.586Z,2.00
2023-02-05T11:10:24.465Z,2.00
2023-02-05T11:12:58.227Z,1.90
2023-02-05T11:15:29.310Z,1.90
2023-02-05T11:18:00.422Z,1.90
2023-02-05T11:20:37.273Z,1.80
2023-02-05T11:23:15.909Z,1.70
2023-02-05T11:26:00.969Z,1.60
2023-02-05T11:28:31.377Z,1.60
2023-02-05T11:31:17.625Z,1.60
2023-02-05T11:33:44.535Z,1.60
2023-02-05T11:36:18.931Z,1.60
2023-02-05T11:38:57.137Z,1.60
2023-02-05T11:41:52.105Z,1.60
2023-02-05T11:44:32.129Z,1.60
2023-02-05T11:47:01.667Z,1.60
2023-02-05T11:49:32.583Z,1.60
2023-02-05T11:51:59.967Z,1.60
2023-02-05T11:54:31.559Z,1.60
2023-02-05T11:57:06.189Z,1.60
2023-02-05T11:59:34.216Z,1.60
2023-02-05T12:02:32.276Z,1.60
2023-02-05T12:05:28.789Z,1.70
2023-02-05T12:08:13.714Z,1.70
2023-02-05T12:11:00.929Z,1.70
2023-02-05T12:13:35.117Z,1.70
2023-02-05T12:16:22.804Z,1.80
2023-02-05T12:19:16.625Z,1.80
2023-02-05T12:22:10.723Z,1.90
2023-02-05T12:24:57.776Z,1.90
2023-02-05T12:27:45.199Z,1.80
2023-02-05T12:30:15.024Z,1.90
2023-02-05T12:33:15.318Z,2.10
2023-02-05T12:36:07.686Z,2.10
2023-02-05T12:39:30.913Z,1.90
2023-02-05T12:42:30.784Z,1.90
2023-02-05T12:45:03.637Z,1.80
2023-02-05T12:47:32.986Z,1.80
2023-02-05T12:50:21.248Z,1.80
2023-02-05T12:53:20.016Z,1.80
2023-02-05T12:56:17.795Z,1.70
2023-02-05T12:58:58.680Z,1.80
2023-02-05T13:01:36.602Z,1.70
2023-02-05T13:04:06.246Z,1.70
2023-02-05T13:06:39.373Z,1.70
2023-02-05T13:09:20.692Z,1.70
2023-02-05T13:11:58.273Z,1.70
2023-02-05T13:15:04.665Z,1.60
2023-02-05T13:17:36.996Z,1.60
2023-02-05T13:20:46.928Z,1.50
2023-02-05T13:23:33.776Z,1.60
2023-02-05T13:26:20.846Z,1.70
2023-02-05T13:29:11.460Z,1.50
2023-02-05T13:31:43.358Z,1.60
2023-02-05T13:34:15.238Z,1.70
2023-02-05T13:36:53.696Z,1.60
2023-02-05T13:39:55.648Z,1.50
2023-02-05T13:42:43.148Z,1.40
2023-02-05T13:45:31.669Z,1.40
2023-02-05T13:48:04.548Z,1.20
2023-02-05T13:50:52.948Z,1.30
2023-02-05T13:53:39.702Z,1.20
2023-02-05T13:56:15.316Z,1.30
2023-02-05T13:58:54.346Z,1.30
2023-02-05T14:01:26.254Z,1.20
2023-02-05T14:04:26.634Z,1.20
2023-02-05T14:07:01.320Z,1.10
2023-02-05T14:09:52.601Z,1.00
2023-02-05T14:12:38.414Z,1.00
2023-02-05T14:15:17.386Z,1.00
2023-02-05T14:17:44.074Z,1.00
2023-02-05T14:20:26.126Z,0.90
2023-02-05T14:22:57.888Z,1.00
2023-02-05T14:25:39.582Z,0.90
2023-02-05T14:28:15.555Z,0.90
2023-02-05T14:30:53.768Z,0.90
2023-02-05T14:33:41.042Z,1.00
2023-02-05T14:36:16.952Z,0.90
2023-02-05T14:38:45.303Z,0.80
2023-02-05T14:41:14.716Z,0.70
2023-02-05T14:43:46.472Z,0.70
2023-02-05T14:46:30.804Z,0.80
2023-02-05T14:49:00.424Z,0.80
2023-02-05T14:51:36.421Z,0.70
2023-02-05T14:54:12.210Z,0.70
2023-02-05T14:57:04.026Z,0.80
2023-02-05T14:59:48.859Z,0.70
2023-02-05T15:02:53.245Z,0.70
2023-02-05T15:05:46.182Z,0.70
2023-02-05T15:08:15.457Z,0.80
2023-02-05T15:10:54.818Z,0.90
2023-02-05T15:13:22.729Z,0.80
2023-02-05T15:16:16.718Z,0.90
2023-02-05T15:18:44.720Z,0.80
2023-02-05T15:21:28.533Z,0.90
2023-02-05T15:24:01.968Z,0.90
2023-02-05T15:26:46.176Z,0.90
2023-02-05T15:29:25.490Z,1.00
2023-02-05T15:31:59.084Z,1.00
2023-02-05T15:34:42.583Z,1.00
2023-02-05T15:37:09.239Z,1.00
2023-02-05T15:39:53.657Z,1.10
2023-02-05T15:42:38.933Z,1.00
2023-02-05T15:45:44.767Z,1.10
2023-02-05T15:48:11.805Z,1.00
2023-02-05T15:50:49.653Z,1.00
2023-02-05T15:53:36.509Z,1.00
2023-02-05T15:56:32.759Z,1.00
2023-02-05T15:59:05.529Z,0.90
2023-02-05T16:01:41.805Z,1.00
2023-02-05T16:04:35.471Z,1.00
2023-02-05T16:07:02.377Z,1.00
2023-02-05T16:09:30.440Z,1.10
2023-02-05T16:12:09.896Z,1.10
2023-02-05T16:14:36.549Z,1.10
2023-02-05T16:17:10.507Z,1.10
2023-02-05T16:19:44.073Z,1.00
2023-02-05T16:22:22.229Z,1.10
2023-02-05T16:24:52.318Z,1.10
2023-02-05T16:27:27.054Z,1.10
2023-02-05T16:29:58.067Z,1.10
2023-02-05T16:32:33.868Z,1.10
2023-02-05T16:35:04.377Z,1.10
2023-02-05T16:37:32.006Z,1.10
2023-02-05T16:40:01.758Z,1.10
2023-02-05T16:42:43.025Z,0.90
2023-02-05T16:45:12.789Z,0.80
2023-02-05T16:47:39.870Z,0.80
2023-02-05T16:50:41.272Z,0.80
2023-02-05T16:53:36.297Z,0.80
2023-02-05T16:56:21.198Z,0.90
2023-02-05T16:58:57.369Z,0.80
2023-02-05T17:01:37.908Z,0.80
2023-02-05T17:04:05.158Z,0.80
2023-02-05T17:06:37.331Z,0.90
2023-02-05T17:09:05.542Z,0.90
2023-02-05T17:11:40.073Z,0.90
2023-02-05T17:14:31.078Z,1.00
2023-02-05T17:17:18.721Z,1.00
2023-02-05T17:20:18.011Z,1.00
2023-02-05T17:23:07.407Z,0.90
2023-02-05T17:25:39.225Z,0.90
2023-02-05T17:28:08.092Z,1.00
2023-02-05T17:30:35.304Z,0.90
2023-02-05T17:33:06.817Z,1.00
2023-02-05T17:35:33.842Z,1.00
2023-02-05T17:38:00.577Z,1.00
2023-02-05T17:40:27.331Z,1.10
2023-02-05T17:42:53.998Z,1.00
2023-02-05T17:45:24.163Z,0.90
2023-02-05T17:47:51.509Z,0.90
2023-02-05T17:50:18.642Z,0.90
2023-02-05T17:52:45.763Z,0.80
2023-02-05T17:55:15.991Z,0.70
2023-02-05T17:57:43.474Z,0.70
2023-02-05T18:00:16.440Z,0.70
2023-02-05T18:02:43.144Z,0.60
2023-02-05T18:05:13.548Z,0.50
2023-02-05T18:07:45.455Z,0.50
2023-02-05T18:10:15.170Z,0.60
2023-02-05T18:12:42.083Z,0.70
2023-02-05T18:15:09.622Z,0.70
2023-02-05T18:17:36.405Z,0.80
2023-02-05T18:20:04.237Z,0.80
2023-02-05T18:22:31.324Z,0.90
2023-02-05T18:24:58.034Z,0.90
2023-02-05T18:27:25.856Z,0.90
2023-02-05T18:29:52.836Z,0.90
2023-02-05T18:32:19.626Z,0.90
2023-02-05T18:34:46.296Z,0.90
2023-02-05T18:37:14.972Z,1.00
2023-02-05T18:39:41.655Z,1.00
2023-02-05T18:42:08.461Z,1.00
2023-02-05T18:44:35.285Z,1.00
2023-02-05T18:47:02.725Z,1.00
2023-02-05T18:49:29.452Z,1.00
2023-02-05T18:51:56.121Z,0.90
2023-02-05T18:54:22.799Z,0.90
2023-02-05T18:56:49.746Z,0.90
2023-02-05T18:59:18.002Z,0.90
2023-02-05T19:01:44.791Z,0.80
2023-02-05T19:04:15.661Z,0.80
2023-02-05T19:06:43.782Z,0.80
2023-02-05T19:09:11.117Z,0.90
2023-02-05T19:11:41.259Z,0.90
2023-02-05T19:14:11.036Z,0.90
2023-02-05T19:16:39.117Z,0.80
2023-02-05T19:19:06.545Z,0.80
2023-02-05T19:21:33.773Z,0.80
2023-02-05T19:24:05.428Z,0.80
2023-02-05T19:26:34.823Z,0.60
2023-02-05T19:29:06.056Z,0.60
2023-02-05T19:31:35.138Z,0.60
2023-02-05T19:34:02.188Z,0.60
2023-02-05T19:36:29.835Z,0.60
2023-02-05T19:38:58.969Z,0.70
2023-02-05T19:41:26.715Z,0.80
2023-02-05T19:43:55.777Z,0.80
2023-02-05T19:46:25.597Z,0.90
2023-02-05T19:48:53.954Z,0.90
2023-02-05T19:51:20.802Z,0.90
2023-02-05T19:53:48.935Z,0.90
2023-02-05T19:56:18.876Z,0.90
2023-02-05T19:58:48.222Z,0.90
2023-02-05T20:01:24.081Z,0.90
2023-02-05T20:03:53.367Z,0.90
2023-02-05T20:06:22.128Z,0.90
2023-02-05T20:08:49.528Z,0.90
2023-02-05T20:11:17.691Z,1.00
2023-02-05T20:13:44.929Z,1.00
2023-02-05T20:16:20.615Z,1.00
2023-02-05T20:18:51.959Z,1.00
2023-02-05T20:21:19.109Z,1.00
2023-02-05T20:23:46.898Z,1.00
2023-02-05T20:26:14.492Z,1.00
2023-02-05T20:29:00.782Z,1.00
2023-02-05T20:31:41.072Z,1.00
2023-02-05T20:34:18.226Z,1.00
2023-02-05T20:36:46.892Z,1.00
2023-02-05T20:39:13.858Z,1.00
2023-02-05T20:41:40.778Z,1.00
2023-02-05T20:44:07.486Z,1.00
2023-02-05T20:46:34.284Z,1.00
2023-02-05T20:49:01.565Z,1.00
2023-02-05T20:51:28.264Z,1.00
2023-02-05T20:53:57.012Z,1.00
2023-02-05T20:56:25.429Z,1.00
2023-02-05T20:58:52.555Z,1.00
2023-02-05T21:01:25.361Z,1.00
2023-02-05T21:03:54.334Z,0.90
2023-02-05T21:06:23.070Z,0.80
2023-02-05T21:08:51.054Z,0.70
2023-02-05T21:11:18.825Z,0.60
2023-02-05T21:13:47.513Z,0.50
2023-02-05T21:16:15.630Z,0.50
2023-02-05T21:18:44.989Z,0.50
2023-02-05T21:21:19.545Z,0.50
2023-02-05T21:23:47.131Z,0.50
2023-02-05T21:26:30.096Z,0.60
2023-02-05T21:29:01.793Z,0.70
2023-02-05T21:31:33.826Z,0.70
2023-02-05T21:34:05.870Z,0.70
2023-02-05T21:36:33.211Z,0.70
2023-02-05T21:39:00.008Z,0.60
2023-02-05T21:41:26.727Z,0.60
2023-02-05T21:43:56.359Z,0.70
2023-02-05T21:46:24.441Z,0.60
2023-02-05T21:48:53.678Z,0.70
2023-02-05T21:51:21.994Z,0.70
2023-02-05T21:53:57.015Z,0.60
2023-02-05T21:56:37.772Z,0.60
2023-02-05T21:59:04.952Z,0.60
2023-02-05T22:01:34.167Z,0.50
2023-02-05T22:04:03.869Z,0.40
2023-02-05T22:06:32.956Z,0.40
2023-02-05T22:09:00.787Z,0.40
2023-02-05T22:11:28.367Z,0.50
2023-02-05T22:13:56.441Z,0.50
2023-02-05T22:16:28.465Z,0.40
2023-02-05T22:18:56.107Z,0.50
2023-02-05T22:21:29.484Z,0.40
2023-02-05T22:23:58.436Z,0.40
2023-02-05T22:26:32.016Z,0.40
2023-02-05T22:29:00.298Z,0.40
2023-02-05T22:31:28.630Z,0.40
2023-02-05T22:33:56.523Z,0.50
2023-02-05T22:36:25.426Z,0.50
2023-02-05T22:38:52.838Z,0.50
2023-02-05T22:41:30.594Z,0.50
2023-02-05T22:43:59.400Z,0.50
2023-02-05T22:46:29.004Z,0.50
2023-02-05T22:49:20.950Z,0.50
2023-02-05T22:51:51.969Z,0.50
2023-02-05T22:54:18.692Z,0.50
2023-02-05T22:56:45.822Z,0.50
2023-02-05T22:59:13.251Z,0.60
2023-02-05T23:01:40.091Z,0.60
2023-02-05T23:04:08.468Z,0.60
2023-02-05T23:06:38.505Z,0.60
2023-02-05T23:09:11.578Z,0.60
2023-02-05T23:11:38.667Z,0.60
2023-02-05T23:14:06.757Z,0.60
2023-02-05T23:16:36.610Z,0.60
2023-02-05T23:19:11.179Z,0.60
2023-02-05T23:21:38.980Z,0.60
2023-02-05T23:24:06.471Z,0.60
2023-02-05T23:26:38.319Z,0.60
2023-02-05T23:29:05.719Z,0.60
2023-02-05T23:31:33.363Z,0.60
2023-02-05T23:34:00.215Z,0.60
2023-02-05T23:36:26.899Z,0.60
2023-02-05T23:38:53.580Z,0.60
2023-02-05T23:41:35.452Z,0.60
2023-02-05T23:44:06.487Z,0.50
2023-02-05T23:46:34.180Z,0.50
2023-02-05T23:49:00.872Z,0.50
2023-02-05T23:51:27.601Z,0.40
2023-02-05T23:53:54.306Z,0.40
2023-02-05T23:56:21.026Z,0.40
2023-02-05T23:58:47.763Z,0.40
